sensor_id;sensor_type;location;lat;lon;timestamp;temperature;humidity
71237;DHT22;58984;51.960;5.582;2023-06-04T00:02:13;21.90;44.10
71237;DHT22;58984;51.960;5.582;2023-06-04T00:04:39;21.90;44.20
71237;DHT22;58984;51.960;5.582;2023-06-04T00:07:05;21.80;44.10
71237;DHT22;58984;51.960;5.582;2023-06-04T00:09:31;21.80;44.20
71237;DHT22;58984;51.960;5.582;2023-06-04T00:11:56;21.80;44.20
71237;DHT22;58984;51.960;5.582;2023-06-04T00:14:22;21.80;44.20
71237;DHT22;58984;51.960;5.582;2023-06-04T00:16:48;21.70;44.10
71237;DHT22;58984;51.960;5.582;2023-06-04T00:19:13;21.70;44.20
71237;DHT22;58984;51.960;5.582;2023-06-04T00:21:39;21.70;44.10
71237;DHT22;58984;51.960;5.582;2023-06-04T00:24:05;21.70;44.20
71237;DHT22;58984;51.960;5.582;2023-06-04T00:26:31;21.70;44.20
71237;DHT22;58984;51.960;5.582;2023-06-04T00:28:56;21.70;44.30
71237;DHT22;58984;51.960;5.582;2023-06-04T00:31:22;21.70;44.20
71237;DHT22;58984;51.960;5.582;2023-06-04T00:33:48;21.60;44.20
71237;DHT22;58984;51.960;5.582;2023-06-04T00:36:14;21.60;44.30
71237;DHT22;58984;51.960;5.582;2023-06-04T00:38:39;21.60;44.30
71237;DHT22;58984;51.960;5.582;2023-06-04T00:41:05;21.60;44.20
71237;DHT22;58984;51.960;5.582;2023-06-04T00:43:30;21.50;44.20
71237;DHT22;58984;51.960;5.582;2023-06-04T00:45:57;21.50;44.20
71237;DHT22;58984;51.960;5.582;2023-06-04T00:48:23;21.50;44.20
71237;DHT22;58984;51.960;5.582;2023-06-04T00:50:50;21.50;44.20
71237;DHT22;58984;51.960;5.582;2023-06-04T00:53:16;21.50;44.40
71237;DHT22;58984;51.960;5.582;2023-06-04T00:55:42;21.40;44.20
71237;DHT22;58984;51.960;5.582;2023-06-04T00:58:08;21.40;44.30
71237;DHT22;58984;51.960;5.582;2023-06-04T01:00:35;21.40;44.20
71237;DHT22;58984;51.960;5.582;2023-06-04T01:03:05;21.40;44.20
71237;DHT22;58984;51.960;5.582;2023-06-04T01:05:43;21.40;44.20
71237;DHT22;58984;51.960;5.582;2023-06-04T01:08:13;21.30;44.10
71237;DHT22;58984;51.960;5.582;2023-06-04T01:10:51;21.40;44.20
71237;DHT22;58984;51.960;5.582;2023-06-04T01:13:16;21.30;44.40
71237;DHT22;58984;51.960;5.582;2023-06-04T01:15:42;21.30;44.20
71237;DHT22;58984;51.960;5.582;2023-06-04T01:18:07;21.30;44.20
71237;DHT22;58984;51.960;5.582;2023-06-04T01:20:40;21.30;44.20
71237;DHT22;58984;51.960;5.582;2023-06-04T01:23:28;21.20;44.20
71237;DHT22;58984;51.960;5.582;2023-06-04T01:26:00;21.10;44.10
71237;DHT22;58984;51.960;5.582;2023-06-04T01:28:29;21.20;44.20
71237;DHT22;58984;51.960;5.582;2023-06-04T01:30:55;21.20;44.20
71237;DHT22;58984;51.960;5.582;2023-06-04T01:33:22;21.20;44.20
71237;DHT22;58984;51.960;5.582;2023-06-04T01:35:48;21.20;44.30
71237;DHT22;58984;51.960;5.582;2023-06-04T01:38:14;21.20;44.30
71237;DHT22;58984;51.960;5.582;2023-06-04T01:40:40;21.10;44.30
71237;DHT22;58984;51.960;5.582;2023-06-04T01:43:06;21.10;44.30
71237;DHT22;58984;51.960;5.582;2023-06-04T01:45:32;21.10;44.20
71237;DHT22;58984;51.960;5.582;2023-06-04T01:48:00;21.10;44.20
71237;DHT22;58984;51.960;5.582;2023-06-04T01:50:25;21.10;44.40
71237;DHT22;58984;51.960;5.582;2023-06-04T01:52:51;21.10;44.40
71237;DHT22;58984;51.960;5.582;2023-06-04T01:55:17;21.00;44.30
71237;DHT22;58984;51.960;5.582;2023-06-04T01:57:45;21.00;44.30
71237;DHT22;58984;51.960;5.582;2023-06-04T02:00:12;21.00;44.30
71237;DHT22;58984;51.960;5.582;2023-06-04T02:02:38;20.90;44.30
71237;DHT22;58984;51.960;5.582;2023-06-04T02:05:05;21.00;44.40
71237;DHT22;58984;51.960;5.582;2023-06-04T02:07:41;20.90;44.40
71237;DHT22;58984;51.960;5.582;2023-06-04T02:10:18;20.90;45.00
71237;DHT22;58984;51.960;5.582;2023-06-04T02:13:00;20.80;44.30
71237;DHT22;58984;51.960;5.582;2023-06-04T02:15:26;20.80;44.30
71237;DHT22;58984;51.960;5.582;2023-06-04T02:17:56;20.90;44.40
71237;DHT22;58984;51.960;5.582;2023-06-04T02:20:25;20.80;44.30
71237;DHT22;58984;51.960;5.582;2023-06-04T02:22:51;20.90;44.40
71237;DHT22;58984;51.960;5.582;2023-06-04T02:25:17;20.80;44.30
71237;DHT22;58984;51.960;5.582;2023-06-04T02:27:42;20.80;44.30
71237;DHT22;58984;51.960;5.582;2023-06-04T02:30:08;20.80;44.30
71237;DHT22;58984;51.960;5.582;2023-06-04T02:32:34;20.80;44.30
71237;DHT22;58984;51.960;5.582;2023-06-04T02:35:02;20.70;44.20
71237;DHT22;58984;51.960;5.582;2023-06-04T02:37:28;20.70;44.20
71237;DHT22;58984;51.960;5.582;2023-06-04T02:39:53;20.70;44.20
71237;DHT22;58984;51.960;5.582;2023-06-04T02:42:19;20.70;44.20
71237;DHT22;58984;51.960;5.582;2023-06-04T02:44:45;20.70;44.20
71237;DHT22;58984;51.960;5.582;2023-06-04T02:47:11;20.70;44.20
71237;DHT22;58984;51.960;5.582;2023-06-04T02:49:36;20.70;44.30
71237;DHT22;58984;51.960;5.582;2023-06-04T02:52:02;20.60;44.20
71237;DHT22;58984;51.960;5.582;2023-06-04T02:54:27;20.60;44.20
71237;DHT22;58984;51.960;5.582;2023-06-04T02:56:53;20.60;44.20
71237;DHT22;58984;51.960;5.582;2023-06-04T02:59:19;20.60;44.30
71237;DHT22;58984;51.960;5.582;2023-06-04T03:01:44;20.60;44.40
71237;DHT22;58984;51.960;5.582;2023-06-04T03:04:10;20.50;44.30
71237;DHT22;58984;51.960;5.582;2023-06-04T03:06:41;20.50;44.30
71237;DHT22;58984;51.960;5.582;2023-06-04T03:09:10;20.50;44.30
71237;DHT22;58984;51.960;5.582;2023-06-04T03:11:36;20.50;44.40
71237;DHT22;58984;51.960;5.582;2023-06-04T03:14:02;20.40;44.30
71237;DHT22;58984;51.960;5.582;2023-06-04T03:16:27;20.50;44.40
71237;DHT22;58984;51.960;5.582;2023-06-04T03:18:53;20.40;44.40
71237;DHT22;58984;51.960;5.582;2023-06-04T03:21:19;20.40;44.30
71237;DHT22;58984;51.960;5.582;2023-06-04T03:23:44;20.40;44.40
71237;DHT22;58984;51.960;5.582;2023-06-04T03:26:10;20.40;44.40
71237;DHT22;58984;51.960;5.582;2023-06-04T03:28:38;20.30;44.40
71237;DHT22;58984;51.960;5.582;2023-06-04T03:31:04;20.30;44.40
71237;DHT22;58984;51.960;5.582;2023-06-04T03:33:30;20.30;44.40
71237;DHT22;58984;51.960;5.582;2023-06-04T03:35:55;20.30;44.50
71237;DHT22;58984;51.960;5.582;2023-06-04T03:38:25;20.30;44.50
71237;DHT22;58984;51.960;5.582;2023-06-04T03:40:50;20.30;44.50
71237;DHT22;58984;51.960;5.582;2023-06-04T03:43:18;20.30;44.50
71237;DHT22;58984;51.960;5.582;2023-06-04T03:45:44;20.30;44.60
71237;DHT22;58984;51.960;5.582;2023-06-04T03:48:09;20.20;44.60
71237;DHT22;58984;51.960;5.582;2023-06-04T03:50:36;20.20;44.50
71237;DHT22;58984;51.960;5.582;2023-06-04T03:53:02;20.20;44.50
71237;DHT22;58984;51.960;5.582;2023-06-04T03:55:30;20.20;44.60
71237;DHT22;58984;51.960;5.582;2023-06-04T03:57:57;20.20;44.60
71237;DHT22;58984;51.960;5.582;2023-06-04T04:00:23;20.20;44.60
71237;DHT22;58984;51.960;5.582;2023-06-04T04:02:49;20.20;45.30
71237;DHT22;58984;51.960;5.582;2023-06-04T04:05:15;20.10;44.60
71237;DHT22;58984;51.960;5.582;2023-06-04T04:07:41;20.10;44.60
71237;DHT22;58984;51.960;5.582;2023-06-04T04:10:07;20.10;44.70
71237;DHT22;58984;51.960;5.582;2023-06-04T04:12:32;20.10;44.70
71237;DHT22;58984;51.960;5.582;2023-06-04T04:14:58;20.10;44.70
71237;DHT22;58984;51.960;5.582;2023-06-04T04:17:25;20.10;44.70
71237;DHT22;58984;51.960;5.582;2023-06-04T04:19:51;20.10;44.70
71237;DHT22;58984;51.960;5.582;2023-06-04T04:22:16;20.00;44.80
71237;DHT22;58984;51.960;5.582;2023-06-04T04:24:43;20.00;44.80
71237;DHT22;58984;51.960;5.582;2023-06-04T04:27:09;20.00;44.80
71237;DHT22;58984;51.960;5.582;2023-06-04T04:29:38;20.00;44.80
71237;DHT22;58984;51.960;5.582;2023-06-04T04:32:04;20.00;44.90
71237;DHT22;58984;51.960;5.582;2023-06-04T04:34:36;20.00;44.90
71237;DHT22;58984;51.960;5.582;2023-06-04T04:37:03;20.00;44.90
71237;DHT22;58984;51.960;5.582;2023-06-04T04:39:29;20.00;45.00
71237;DHT22;58984;51.960;5.582;2023-06-04T04:41:55;19.90;45.00
71237;DHT22;58984;51.960;5.582;2023-06-04T04:44:20;19.90;45.10
71237;DHT22;58984;51.960;5.582;2023-06-04T04:46:48;19.90;45.10
71237;DHT22;58984;51.960;5.582;2023-06-04T04:49:14;19.90;45.20
71237;DHT22;58984;51.960;5.582;2023-06-04T04:51:39;19.90;45.20
71237;DHT22;58984;51.960;5.582;2023-06-04T04:54:05;19.90;45.20
71237;DHT22;58984;51.960;5.582;2023-06-04T04:56:33;19.90;45.30
71237;DHT22;58984;51.960;5.582;2023-06-04T04:58:59;19.80;45.30
71237;DHT22;58984;51.960;5.582;2023-06-04T05:01:25;19.80;45.30
71237;DHT22;58984;51.960;5.582;2023-06-04T05:03:51;19.80;45.40
71237;DHT22;58984;51.960;5.582;2023-06-04T05:06:17;19.80;45.40
71237;DHT22;58984;51.960;5.582;2023-06-04T05:08:42;19.80;45.50
71237;DHT22;58984;51.960;5.582;2023-06-04T05:11:08;19.80;45.50
71237;DHT22;58984;51.960;5.582;2023-06-04T05:13:34;19.80;45.60
71237;DHT22;58984;51.960;5.582;2023-06-04T05:16:00;19.80;45.60
71237;DHT22;58984;51.960;5.582;2023-06-04T05:18:32;19.70;45.70
71237;DHT22;58984;51.960;5.582;2023-06-04T05:20:58;19.80;45.70
71237;DHT22;58984;51.960;5.582;2023-06-04T05:23:26;19.80;45.70
71237;DHT22;58984;51.960;5.582;2023-06-04T05:25:52;19.70;45.80
71237;DHT22;58984;51.960;5.582;2023-06-04T05:28:18;19.80;45.90
71237;DHT22;58984;51.960;5.582;2023-06-04T05:30:43;19.70;45.80
71237;DHT22;58984;51.960;5.582;2023-06-04T05:33:09;19.70;46.00
71237;DHT22;58984;51.960;5.582;2023-06-04T05:35:47;19.80;46.10
71237;DHT22;58984;51.960;5.582;2023-06-04T05:38:13;19.70;46.10
71237;DHT22;58984;51.960;5.582;2023-06-04T05:40:44;19.80;46.20
71237;DHT22;58984;51.960;5.582;2023-06-04T05:43:10;19.80;46.20
71237;DHT22;58984;51.960;5.582;2023-06-04T05:45:35;19.70;46.20
71237;DHT22;58984;51.960;5.582;2023-06-04T05:48:01;19.70;46.30
71237;DHT22;58984;51.960;5.582;2023-06-04T05:50:27;19.70;46.30
71237;DHT22;58984;51.960;5.582;2023-06-04T05:52:53;19.70;46.30
71237;DHT22;58984;51.960;5.582;2023-06-04T05:55:19;19.80;46.40
71237;DHT22;58984;51.960;5.582;2023-06-04T05:57:45;19.70;46.40
71237;DHT22;58984;51.960;5.582;2023-06-04T06:00:11;19.70;46.60
71237;DHT22;58984;51.960;5.582;2023-06-04T06:02:37;19.70;46.60
71237;DHT22;58984;51.960;5.582;2023-06-04T06:05:04;19.70;46.70
71237;DHT22;58984;51.960;5.582;2023-06-04T06:07:32;19.70;46.70
71237;DHT22;58984;51.960;5.582;2023-06-04T06:09:57;19.70;46.70
71237;DHT22;58984;51.960;5.582;2023-06-04T06:12:23;19.70;46.70
71237;DHT22;58984;51.960;5.582;2023-06-04T06:14:48;19.70;46.80
71237;DHT22;58984;51.960;5.582;2023-06-04T06:17:14;19.70;46.90
71237;DHT22;58984;51.960;5.582;2023-06-04T06:19:40;19.70;46.90
71237;DHT22;58984;51.960;5.582;2023-06-04T06:22:05;19.70;46.90
71237;DHT22;58984;51.960;5.582;2023-06-04T06:24:31;19.70;47.00
71237;DHT22;58984;51.960;5.582;2023-06-04T06:26:56;19.70;47.00
71237;DHT22;58984;51.960;5.582;2023-06-04T06:29:22;19.70;47.00
71237;DHT22;58984;51.960;5.582;2023-06-04T06:31:47;19.70;47.10
71237;DHT22;58984;51.960;5.582;2023-06-04T06:34:13;19.70;47.10
71237;DHT22;58984;51.960;5.582;2023-06-04T06:36:39;19.80;47.20
71237;DHT22;58984;51.960;5.582;2023-06-04T06:39:04;19.80;47.30
71237;DHT22;58984;51.960;5.582;2023-06-04T06:41:30;19.70;47.20
71237;DHT22;58984;51.960;5.582;2023-06-04T06:43:59;19.70;47.30
71237;DHT22;58984;51.960;5.582;2023-06-04T06:46:24;19.80;47.40
71237;DHT22;58984;51.960;5.582;2023-06-04T06:48:50;19.70;47.30
71237;DHT22;58984;51.960;5.582;2023-06-04T06:51:16;19.80;47.40
71237;DHT22;58984;51.960;5.582;2023-06-04T06:53:42;19.80;47.40
71237;DHT22;58984;51.960;5.582;2023-06-04T06:56:08;19.80;47.50
71237;DHT22;58984;51.960;5.582;2023-06-04T06:58:33;19.80;47.40
71237;DHT22;58984;51.960;5.582;2023-06-04T07:00:59;19.80;47.40
71237;DHT22;58984;51.960;5.582;2023-06-04T07:03:25;19.90;47.60
71237;DHT22;58984;51.960;5.582;2023-06-04T07:05:50;19.90;47.50
71237;DHT22;58984;51.960;5.582;2023-06-04T07:08:16;19.90;47.50
71237;DHT22;58984;51.960;5.582;2023-06-04T07:10:41;19.90;47.60
71237;DHT22;58984;51.960;5.582;2023-06-04T07:13:07;19.90;47.60
71237;DHT22;58984;51.960;5.582;2023-06-04T07:15:32;19.90;47.70
71237;DHT22;58984;51.960;5.582;2023-06-04T07:17:58;20.00;47.70
71237;DHT22;58984;51.960;5.582;2023-06-04T07:20:24;20.00;47.70
71237;DHT22;58984;51.960;5.582;2023-06-04T07:22:49;20.00;47.70
71237;DHT22;58984;51.960;5.582;2023-06-04T07:25:15;20.00;47.80
71237;DHT22;58984;51.960;5.582;2023-06-04T07:27:41;20.10;47.80
71237;DHT22;58984;51.960;5.582;2023-06-04T07:30:09;20.10;47.80
71237;DHT22;58984;51.960;5.582;2023-06-04T07:32:34;20.10;47.80
71237;DHT22;58984;51.960;5.582;2023-06-04T07:35:01;20.10;47.80
71237;DHT22;58984;51.960;5.582;2023-06-04T07:37:26;20.20;48.00
71237;DHT22;58984;51.960;5.582;2023-06-04T07:39:52;20.20;48.00
71237;DHT22;58984;51.960;5.582;2023-06-04T07:42:17;20.20;48.00
71237;DHT22;58984;51.960;5.582;2023-06-04T07:44:43;20.30;48.20
71237;DHT22;58984;51.960;5.582;2023-06-04T07:47:09;20.30;48.10
71237;DHT22;58984;51.960;5.582;2023-06-04T07:49:34;20.30;48.20
71237;DHT22;58984;51.960;5.582;2023-06-04T07:52:00;20.30;48.20
71237;DHT22;58984;51.960;5.582;2023-06-04T07:54:25;20.30;48.20
71237;DHT22;58984;51.960;5.582;2023-06-04T07:56:51;20.40;48.30
71237;DHT22;58984;51.960;5.582;2023-06-04T07:59:24;20.40;48.40
71237;DHT22;58984;51.960;5.582;2023-06-04T08:01:50;20.50;48.50
71237;DHT22;58984;51.960;5.582;2023-06-04T08:04:19;20.50;48.50
71237;DHT22;58984;51.960;5.582;2023-06-04T08:06:44;20.50;48.30
71237;DHT22;58984;51.960;5.582;2023-06-04T08:09:10;20.60;48.50
71237;DHT22;58984;51.960;5.582;2023-06-04T08:11:37;20.60;48.50
71237;DHT22;58984;51.960;5.582;2023-06-04T08:14:02;20.60;48.50
71237;DHT22;58984;51.960;5.582;2023-06-04T08:16:28;20.70;48.50
71237;DHT22;58984;51.960;5.582;2023-06-04T08:18:54;20.70;48.50
71237;DHT22;58984;51.960;5.582;2023-06-04T08:21:27;20.80;48.60
71237;DHT22;58984;51.960;5.582;2023-06-04T08:23:52;20.80;48.70
71237;DHT22;58984;51.960;5.582;2023-06-04T08:26:19;20.90;48.70
71237;DHT22;58984;51.960;5.582;2023-06-04T08:28:47;20.90;48.80
71237;DHT22;58984;51.960;5.582;2023-06-04T08:31:13;21.00;48.80
71237;DHT22;58984;51.960;5.582;2023-06-04T08:33:39;21.00;48.70
71237;DHT22;58984;51.960;5.582;2023-06-04T08:36:04;21.10;48.90
71237;DHT22;58984;51.960;5.582;2023-06-04T08:38:30;21.10;48.90
71237;DHT22;58984;51.960;5.582;2023-06-04T08:41:01;21.20;48.90
71237;DHT22;58984;51.960;5.582;2023-06-04T08:43:29;21.20;48.90
71237;DHT22;58984;51.960;5.582;2023-06-04T08:45:59;21.30;48.80
71237;DHT22;58984;51.960;5.582;2023-06-04T08:48:28;21.30;48.70
71237;DHT22;58984;51.960;5.582;2023-06-04T08:50:57;21.40;48.80
71237;DHT22;58984;51.960;5.582;2023-06-04T08:53:25;21.40;48.60
71237;DHT22;58984;51.960;5.582;2023-06-04T08:55:53;21.50;48.70
71237;DHT22;58984;51.960;5.582;2023-06-04T08:58:19;21.50;48.70
71237;DHT22;58984;51.960;5.582;2023-06-04T09:00:45;21.60;48.80
71237;DHT22;58984;51.960;5.582;2023-06-04T09:03:11;21.70;48.80
71237;DHT22;58984;51.960;5.582;2023-06-04T09:05:38;21.70;48.80
71237;DHT22;58984;51.960;5.582;2023-06-04T09:08:08;21.80;48.90
71237;DHT22;58984;51.960;5.582;2023-06-04T09:10:37;21.80;48.80
71237;DHT22;58984;51.960;5.582;2023-06-04T09:13:03;21.90;48.80
71237;DHT22;58984;51.960;5.582;2023-06-04T09:15:31;21.90;48.70
71237;DHT22;58984;51.960;5.582;2023-06-04T09:17:57;22.00;49.50
71237;DHT22;58984;51.960;5.582;2023-06-04T09:20:23;22.10;48.90
71237;DHT22;58984;51.960;5.582;2023-06-04T09:22:49;22.10;48.80
71237;DHT22;58984;51.960;5.582;2023-06-04T09:25:27;22.20;48.90
71237;DHT22;58984;51.960;5.582;2023-06-04T09:27:57;22.20;48.90
71237;DHT22;58984;51.960;5.582;2023-06-04T09:30:30;22.30;48.90
71237;DHT22;58984;51.960;5.582;2023-06-04T09:33:09;22.40;48.80
71237;DHT22;58984;51.960;5.582;2023-06-04T09:35:34;22.40;48.90
71237;DHT22;58984;51.960;5.582;2023-06-04T09:38:00;22.50;48.90
71237;DHT22;58984;51.960;5.582;2023-06-04T09:40:35;22.50;49.00
71237;DHT22;58984;51.960;5.582;2023-06-04T09:43:02;22.60;49.10
71237;DHT22;58984;51.960;5.582;2023-06-04T09:47:54;22.70;49.00
71237;DHT22;58984;51.960;5.582;2023-06-04T09:50:25;22.70;48.90
71237;DHT22;58984;51.960;5.582;2023-06-04T09:52:51;22.80;49.00
71237;DHT22;58984;51.960;5.582;2023-06-04T09:55:18;22.90;48.90
71237;DHT22;58984;51.960;5.582;2023-06-04T09:57:49;22.90;48.90
71237;DHT22;58984;51.960;5.582;2023-06-04T10:00:23;23.00;49.00
71237;DHT22;58984;51.960;5.582;2023-06-04T10:02:51;23.00;49.00
71237;DHT22;58984;51.960;5.582;2023-06-04T10:05:20;23.10;48.80
71237;DHT22;58984;51.960;5.582;2023-06-04T10:07:51;23.10;48.90
71237;DHT22;58984;51.960;5.582;2023-06-04T10:10:23;23.10;48.90
71237;DHT22;58984;51.960;5.582;2023-06-04T10:12:54;23.20;48.90
71237;DHT22;58984;51.960;5.582;2023-06-04T10:15:22;23.30;49.00
71237;DHT22;58984;51.960;5.582;2023-06-04T10:17:48;23.30;48.90
71237;DHT22;58984;51.960;5.582;2023-06-04T10:20:14;23.30;48.90
71237;DHT22;58984;51.960;5.582;2023-06-04T10:22:42;23.40;49.10
71237;DHT22;58984;51.960;5.582;2023-06-04T10:25:08;23.40;48.70
71237;DHT22;58984;51.960;5.582;2023-06-04T10:27:35;23.50;49.10
71237;DHT22;58984;51.960;5.582;2023-06-04T10:30:03;23.50;49.80
71237;DHT22;58984;51.960;5.582;2023-06-04T10:32:30;23.60;49.30
71237;DHT22;58984;51.960;5.582;2023-06-04T10:34:56;23.60;49.80
71237;DHT22;58984;51.960;5.582;2023-06-04T10:37:26;23.70;49.20
71237;DHT22;58984;51.960;5.582;2023-06-04T10:39:54;23.60;49.00
71237;DHT22;58984;51.960;5.582;2023-06-04T10:42:21;23.80;49.20
71237;DHT22;58984;51.960;5.582;2023-06-04T10:44:48;23.80;49.20
71237;DHT22;58984;51.960;5.582;2023-06-04T10:47:27;23.80;49.20
71237;DHT22;58984;51.960;5.582;2023-06-04T10:50:08;23.80;49.20
71237;DHT22;58984;51.960;5.582;2023-06-04T10:52:35;23.90;49.20
71237;DHT22;58984;51.960;5.582;2023-06-04T10:55:05;24.00;49.20
71237;DHT22;58984;51.960;5.582;2023-06-04T10:57:31;24.00;49.20
71237;DHT22;58984;51.960;5.582;2023-06-04T10:59:58;24.10;49.20
71237;DHT22;58984;51.960;5.582;2023-06-04T11:02:24;24.10;49.20
71237;DHT22;58984;51.960;5.582;2023-06-04T11:05:06;24.30;47.20
71237;DHT22;58984;51.960;5.582;2023-06-04T11:07:44;24.20;47.40
71237;DHT22;58984;51.960;5.582;2023-06-04T11:10:14;24.40;45.20
71237;DHT22;58984;51.960;5.582;2023-06-04T11:12:44;24.50;46.20
71237;DHT22;58984;51.960;5.582;2023-06-04T11:15:10;24.50;46.60
71237;DHT22;58984;51.960;5.582;2023-06-04T11:17:36;24.60;47.10
71237;DHT22;58984;51.960;5.582;2023-06-04T11:20:02;24.60;47.30
71237;DHT22;58984;51.960;5.582;2023-06-04T11:22:32;24.60;47.40
71237;DHT22;58984;51.960;5.582;2023-06-04T11:24:59;24.60;47.50
71237;DHT22;58984;51.960;5.582;2023-06-04T11:27:24;24.70;47.60
71237;DHT22;58984;51.960;5.582;2023-06-04T11:29:51;24.70;47.60
71237;DHT22;58984;51.960;5.582;2023-06-04T11:32:24;24.70;47.50
71237;DHT22;58984;51.960;5.582;2023-06-04T11:34:50;24.70;47.50
71237;DHT22;58984;51.960;5.582;2023-06-04T11:37:15;24.80;47.60
71237;DHT22;58984;51.960;5.582;2023-06-04T11:39:41;24.90;47.60
71237;DHT22;58984;51.960;5.582;2023-06-04T11:42:10;24.90;47.70
71237;DHT22;58984;51.960;5.582;2023-06-04T11:44:36;25.00;47.70
71237;DHT22;58984;51.960;5.582;2023-06-04T11:47:07;25.00;47.70
71237;DHT22;58984;51.960;5.582;2023-06-04T11:49:34;25.00;47.70
71237;DHT22;58984;51.960;5.582;2023-06-04T11:52:01;25.10;47.80
71237;DHT22;58984;51.960;5.582;2023-06-04T11:54:27;25.20;47.80
71237;DHT22;58984;51.960;5.582;2023-06-04T11:56:53;25.20;47.70
71237;DHT22;58984;51.960;5.582;2023-06-04T11:59:19;25.20;47.80
71237;DHT22;58984;51.960;5.582;2023-06-04T12:01:46;25.20;47.60
71237;DHT22;58984;51.960;5.582;2023-06-04T12:04:13;25.30;47.70
71237;DHT22;58984;51.960;5.582;2023-06-04T12:06:53;25.30;47.60
71237;DHT22;58984;51.960;5.582;2023-06-04T12:09:20;25.30;47.50
71237;DHT22;58984;51.960;5.582;2023-06-04T12:11:47;25.40;47.60
71237;DHT22;58984;51.960;5.582;2023-06-04T12:14:17;25.40;47.70
71237;DHT22;58984;51.960;5.582;2023-06-04T12:16:56;25.40;47.70
71237;DHT22;58984;51.960;5.582;2023-06-04T12:19:21;25.40;47.50
71237;DHT22;58984;51.960;5.582;2023-06-04T12:22:02;25.50;47.50
71237;DHT22;58984;51.960;5.582;2023-06-04T12:24:29;25.50;47.70
71237;DHT22;58984;51.960;5.582;2023-06-04T12:27:05;25.60;47.60
71237;DHT22;58984;51.960;5.582;2023-06-04T12:29:32;25.50;47.50
71237;DHT22;58984;51.960;5.582;2023-06-04T12:32:08;25.70;47.70
71237;DHT22;58984;51.960;5.582;2023-06-04T12:34:35;25.60;47.30
71237;DHT22;58984;51.960;5.582;2023-06-04T12:37:01;25.70;47.50
71237;DHT22;58984;51.960;5.582;2023-06-04T12:39:32;25.70;47.50
71237;DHT22;58984;51.960;5.582;2023-06-04T12:41:57;25.70;47.30
71237;DHT22;58984;51.960;5.582;2023-06-04T12:44:23;25.80;47.50
71237;DHT22;58984;51.960;5.582;2023-06-04T12:46:49;25.80;47.70
71237;DHT22;58984;51.960;5.582;2023-06-04T12:49:15;25.80;47.40
71237;DHT22;58984;51.960;5.582;2023-06-04T12:51:41;25.90;47.60
71237;DHT22;58984;51.960;5.582;2023-06-04T12:54:06;25.90;47.50
71237;DHT22;58984;51.960;5.582;2023-06-04T12:56:32;25.90;47.30
71237;DHT22;58984;51.960;5.582;2023-06-04T12:58:58;26.00;47.40
71237;DHT22;58984;51.960;5.582;2023-06-04T13:01:24;26.00;47.20
71237;DHT22;58984;51.960;5.582;2023-06-04T13:03:49;26.00;47.00
71237;DHT22;58984;51.960;5.582;2023-06-04T13:06:15;26.00;47.00
71237;DHT22;58984;51.960;5.582;2023-06-04T13:08:41;26.00;47.00
71237;DHT22;58984;51.960;5.582;2023-06-04T13:11:06;26.10;47.10
71237;DHT22;58984;51.960;5.582;2023-06-04T13:13:33;26.10;47.20
71237;DHT22;58984;51.960;5.582;2023-06-04T13:15:59;26.10;47.10
71237;DHT22;58984;51.960;5.582;2023-06-04T13:18:24;26.10;47.10
71237;DHT22;58984;51.960;5.582;2023-06-04T13:20:50;26.10;47.20
71237;DHT22;58984;51.960;5.582;2023-06-04T13:23:15;26.20;46.50
71237;DHT22;58984;51.960;5.582;2023-06-04T13:25:41;26.30;41.90
71237;DHT22;58984;51.960;5.582;2023-06-04T13:28:07;26.40;40.20
71237;DHT22;58984;51.960;5.582;2023-06-04T13:30:35;26.50;39.70
71237;DHT22;58984;51.960;5.582;2023-06-04T13:33:02;26.50;41.20
71237;DHT22;58984;51.960;5.582;2023-06-04T13:35:28;26.60;41.50
71237;DHT22;58984;51.960;5.582;2023-06-04T13:37:53;26.60;42.30
71237;DHT22;58984;51.960;5.582;2023-06-04T13:40:19;26.50;42.90
71237;DHT22;58984;51.960;5.582;2023-06-04T13:42:45;26.50;43.50
71237;DHT22;58984;51.960;5.582;2023-06-04T13:45:11;26.50;43.70
71237;DHT22;58984;51.960;5.582;2023-06-04T13:47:37;26.50;43.70
71237;DHT22;58984;51.960;5.582;2023-06-04T13:50:02;26.50;44.20
71237;DHT22;58984;51.960;5.582;2023-06-04T13:52:29;26.50;44.50
71237;DHT22;58984;51.960;5.582;2023-06-04T13:54:55;26.50;44.60
71237;DHT22;58984;51.960;5.582;2023-06-04T13:57:21;26.50;44.80
71237;DHT22;58984;51.960;5.582;2023-06-04T13:59:47;26.50;44.80
71237;DHT22;58984;51.960;5.582;2023-06-04T14:02:12;26.50;44.90
71237;DHT22;58984;51.960;5.582;2023-06-04T14:04:38;26.40;45.00
71237;DHT22;58984;51.960;5.582;2023-06-04T14:07:03;26.50;45.10
71237;DHT22;58984;51.960;5.582;2023-06-04T14:09:30;26.50;45.20
71237;DHT22;58984;51.960;5.582;2023-06-04T14:11:56;26.50;45.30
71237;DHT22;58984;51.960;5.582;2023-06-04T14:14:22;26.50;45.30
71237;DHT22;58984;51.960;5.582;2023-06-04T14:16:48;26.50;45.30
71237;DHT22;58984;51.960;5.582;2023-06-04T14:19:14;26.50;45.30
71237;DHT22;58984;51.960;5.582;2023-06-04T14:21:41;26.50;46.00
71237;DHT22;58984;51.960;5.582;2023-06-04T14:24:06;26.50;45.50
71237;DHT22;58984;51.960;5.582;2023-06-04T14:26:32;26.40;45.40
71237;DHT22;58984;51.960;5.582;2023-06-04T14:28:59;26.50;45.40
71237;DHT22;58984;51.960;5.582;2023-06-04T14:31:24;26.50;45.40
71237;DHT22;58984;51.960;5.582;2023-06-04T14:33:50;26.50;45.50
71237;DHT22;58984;51.960;5.582;2023-06-04T14:36:16;26.50;45.50
71237;DHT22;58984;51.960;5.582;2023-06-04T14:38:41;26.50;45.50
71237;DHT22;58984;51.960;5.582;2023-06-04T14:41:07;26.40;45.40
71237;DHT22;58984;51.960;5.582;2023-06-04T14:43:33;26.50;45.50
71237;DHT22;58984;51.960;5.582;2023-06-04T14:45:58;26.40;45.40
71237;DHT22;58984;51.960;5.582;2023-06-04T14:48:24;26.40;45.40
71237;DHT22;58984;51.960;5.582;2023-06-04T14:50:49;26.40;45.50
71237;DHT22;58984;51.960;5.582;2023-06-04T14:53:19;26.40;45.60
71237;DHT22;58984;51.960;5.582;2023-06-04T14:55:45;26.50;45.60
71237;DHT22;58984;51.960;5.582;2023-06-04T14:58:11;26.40;45.50
71237;DHT22;58984;51.960;5.582;2023-06-04T15:00:37;26.40;45.50
71237;DHT22;58984;51.960;5.582;2023-06-04T15:03:03;26.40;45.60
71237;DHT22;58984;51.960;5.582;2023-06-04T15:05:29;26.40;45.50
71237;DHT22;58984;51.960;5.582;2023-06-04T15:07:54;26.40;45.60
71237;DHT22;58984;51.960;5.582;2023-06-04T15:10:20;26.40;45.20
71237;DHT22;58984;51.960;5.582;2023-06-04T15:12:46;26.40;44.70
71237;DHT22;58984;51.960;5.582;2023-06-04T15:15:11;26.40;40.00
71237;DHT22;58984;51.960;5.582;2023-06-04T15:17:37;26.30;38.80
71237;DHT22;58984;51.960;5.582;2023-06-04T15:20:03;26.40;38.60
71237;DHT22;58984;51.960;5.582;2023-06-04T15:22:29;26.40;37.50
71237;DHT22;58984;51.960;5.582;2023-06-04T15:24:55;26.50;37.80
71237;DHT22;58984;51.960;5.582;2023-06-04T15:27:21;26.50;37.80
71237;DHT22;58984;51.960;5.582;2023-06-04T15:29:47;26.60;38.40
71237;DHT22;58984;51.960;5.582;2023-06-04T15:32:13;26.60;39.50